Time;durP1;ratioP1;P1;durP2;ratioP2;P2;SDS_P1;SDS_P2;PMS_P1;PMS_P2;Temp;Humidity;BMP_temperature;BMP_pressure;BME280_temperature;BME280_humidity;BME280_pressure;Samples;Min_cycle;Max_cycle;Signal;HPM_P1;HPM_P2
2023/07/10 00:01:06;;;;;;;6.88;2.40;;;;;;;18.89;100.00;101854.59;5198638;28;20057;-73
2023/07/10 00:03:37;;;;;;;7.70;2.20;;;;;;;18.87;100.00;101843.06;5195068;28;20572;-74
2023/07/10 00:06:11;;;;;;;4.57;2.20;;;;;;;18.87;100.00;101853.03;5200332;28;20035;-73
2023/07/10 00:08:43;;;;;;;7.07;2.60;;;;;;;18.87;100.00;101855.72;5201396;28;20707;-73
2023/07/10 00:11:27;;;;;;;7.22;2.65;;;;;;;18.88;100.00;101862.84;5203397;28;20080;-74
2023/07/10 00:13:59;;;;;;;4.57;2.13;;;;;;;18.86;100.00;101852.19;5198161;28;20033;-73
2023/07/10 00:16:31;;;;;;;7.80;2.70;;;;;;;18.85;100.00;101864.00;5194456;28;20038;-73
2023/07/10 00:19:10;;;;;;;8.23;3.08;;;;;;;18.87;100.00;101870.13;5198374;28;20036;-73
2023/07/10 00:21:42;;;;;;;6.30;2.85;;;;;;;18.83;100.00;101871.41;5196191;28;20044;-73
2023/07/10 00:24:13;;;;;;;6.40;2.20;;;;;;;18.81;100.00;101878.78;5194959;28;20058;-73
2023/07/10 00:26:45;;;;;;;7.68;2.40;;;;;;;18.72;100.00;101869.69;5194533;28;20164;-72
2023/07/10 00:29:24;;;;;;;6.10;2.65;;;;;;;18.67;100.00;101871.13;5196025;28;20027;-72
2023/07/10 00:31:56;;;;;;;6.10;2.38;;;;;;;18.61;100.00;101868.00;5196137;28;20096;-72
2023/07/10 00:34:28;;;;;;;7.00;2.80;;;;;;;18.52;100.00;101858.03;5194731;28;20028;-72
2023/07/10 00:36:59;;;;;;;7.70;2.78;;;;;;;18.50;100.00;101851.09;5193744;28;20531;-72
2023/07/10 00:39:35;;;;;;;8.63;2.47;;;;;;;18.40;100.00;101859.22;5191866;28;20042;-72
2023/07/10 00:42:15;;;;;;;4.80;2.40;;;;;;;18.33;100.00;101867.06;5199609;28;20108;-72
2023/07/10 00:44:54;;;;;;;6.00;2.50;;;;;;;18.31;100.00;101870.88;5192069;28;20033;-72
2023/07/10 00:47:38;;;;;;;7.00;2.70;;;;;;;18.34;100.00;101878.72;5193246;28;20050;-72
2023/07/10 00:50:28;;;;;;;7.47;2.20;;;;;;;18.28;100.00;101882.84;5196965;28;20033;-73
2023/07/10 00:53:01;;;;;;;6.78;2.55;;;;;;;18.29;100.00;101878.28;5192843;28;20034;-72
2023/07/10 00:55:36;;;;;;;6.00;2.67;;;;;;;18.30;100.00;101871.88;5195085;28;20032;-73
2023/07/10 00:58:21;;;;;;;7.10;2.65;;;;;;;18.30;100.00;101869.19;5193213;28;20038;-72
2023/07/10 01:01:07;;;;;;;8.32;3.38;;;;;;;18.29;100.00;101873.72;5193481;28;21125;-72
2023/07/10 01:03:39;;;;;;;7.88;2.80;;;;;;;18.25;100.00;101874.16;5195983;28;20030;-72
2023/07/10 01:06:22;;;;;;;6.80;2.55;;;;;;;18.30;100.00;101874.59;5200531;28;20044;-73
2023/07/10 01:09:04;;;;;;;4.72;2.30;;;;;;;18.31;100.00;101865.47;5193152;28;20042;-72
2023/07/10 01:11:36;;;;;;;7.38;2.42;;;;;;;18.26;100.00;101870.47;5196487;28;20030;-72
2023/07/10 01:14:09;;;;;;;5.88;2.30;;;;;;;18.28;100.00;101863.06;5192310;28;20031;-72
2023/07/10 01:16:41;;;;;;;6.03;2.67;;;;;;;18.28;100.00;101871.19;5194952;28;20049;-72
2023/07/10 01:19:19;;;;;;;7.60;2.30;;;;;;;18.24;100.00;101876.00;5195723;28;20065;-72
2023/07/10 01:21:51;;;;;;;7.10;2.28;;;;;;;18.22;100.00;101868.03;5191389;28;20028;-72
2023/07/10 01:24:22;;;;;;;7.95;2.47;;;;;;;18.20;100.00;101864.63;5194699;28;21438;-72
2023/07/10 01:26:55;;;;;;;5.15;2.30;;;;;;;18.20;100.00;101861.94;5196711;28;20037;-73
2023/07/10 01:29:48;;;;;;;6.50;2.20;;;;;;;18.24;100.00;101862.50;5195110;28;20034;-72
2023/07/10 01:32:21;;;;;;;7.90;2.72;;;;;;;18.21;100.00;101855.50;5194651;28;20459;-72
2023/07/10 01:34:55;;;;;;;6.63;2.33;;;;;;;18.20;100.00;101858.38;5208686;28;20033;-72
2023/07/10 01:37:26;;;;;;;7.25;2.80;;;;;;;18.16;100.00;101848.84;5201978;28;20037;-72
2023/07/10 01:39:58;;;;;;;6.65;2.55;;;;;;;18.19;100.00;101852.09;5192755;28;20038;-72
2023/07/10 01:42:29;;;;;;;5.13;2.33;;;;;;;18.14;100.00;101854.41;5195556;28;20061;-72
2023/07/10 01:45:00;;;;;;;7.32;2.30;;;;;;;18.13;100.00;101858.09;5196128;28;20046;-72
2023/07/10 01:47:32;;;;;;;7.82;2.55;;;;;;;18.14;100.00;101859.81;5196354;28;20025;-72
2023/07/10 01:50:04;;;;;;;6.53;2.58;;;;;;;18.29;100.00;101878.28;5206582;28;20038;-72
2023/07/10 01:52:36;;;;;;;7.20;2.70;;;;;;;18.17;100.00;101867.59;5200439;28;20029;-72
2023/07/10 01:55:09;;;;;;;7.20;2.88;;;;;;;18.10;100.00;101879.13;5198238;28;20026;-72
2023/07/10 01:57:41;;;;;;;7.30;2.43;;;;;;;18.20;100.00;101878.13;5197920;28;20124;-73
2023/07/10 02:00:12;;;;;;;5.95;2.97;;;;;;;18.26;100.00;101876.72;5194109;28;20288;-72
2023/07/10 02:02:44;;;;;;;5.47;2.60;;;;;;;18.17;100.00;101870.31;5196909;28;20029;-73
2023/07/10 02:05:15;;;;;;;5.10;2.33;;;;;;;18.12;100.00;101878.00;5202968;28;20442;-72
2023/07/10 02:07:47;;;;;;;5.85;2.55;;;;;;;18.07;100.00;101874.03;5211917;28;20041;-72
2023/07/10 02:10:18;;;;;;;5.38;2.53;;;;;;;18.00;100.00;101865.63;5204756;28;20085;-72
2023/07/10 02:12:49;;;;;;;6.55;2.53;;;;;;;18.15;100.00;101866.06;5204024;28;20029;-72
2023/07/10 02:15:21;;;;;;;7.63;3.72;;;;;;;18.07;100.00;101871.31;5200853;28;20833;-72
2023/07/10 02:17:53;;;;;;;6.40;2.80;;;;;;;17.92;100.00;101878.97;5200559;28;20030;-73
2023/07/10 02:20:24;;;;;;;6.85;2.78;;;;;;;17.88;100.00;101875.69;5201611;28;20088;-72
2023/07/10 02:22:56;;;;;;;6.40;3.00;;;;;;;17.92;100.00;101882.53;5204245;28;20032;-72
2023/07/10 02:25:27;;;;;;;7.43;3.00;;;;;;;17.85;100.00;101881.38;5200015;28;20030;-72
2023/07/10 02:27:59;;;;;;;8.13;3.53;;;;;;;17.86;100.00;101899.28;5216243;28;20032;-72
2023/07/10 02:30:30;;;;;;;7.70;3.33;;;;;;;17.85;100.00;101896.72;5194610;28;20114;-72
2023/07/10 02:33:02;;;;;;;6.32;2.63;;;;;;;17.96;100.00;101902.00;5200980;28;20030;-72
2023/07/10 02:35:33;;;;;;;6.85;2.90;;;;;;;17.86;100.00;101901.13;5204504;28;20481;-72
2023/07/10 02:38:04;;;;;;;5.00;2.78;;;;;;;17.87;100.00;101900.13;5201928;28;20033;-73
2023/07/10 02:40:36;;;;;;;9.57;3.78;;;;;;;17.82;100.00;101892.44;5209621;28;20030;-73
2023/07/10 02:43:07;;;;;;;7.00;3.72;;;;;;;17.81;100.00;101893.41;5195309;28;20366;-73
2023/07/10 02:45:39;;;;;;;10.20;4.68;;;;;;;17.84;100.00;101895.88;5207877;28;20037;-72
2023/07/10 02:48:10;;;;;;;10.50;5.75;;;;;;;17.75;100.00;101897.50;5201331;28;20062;-72
2023/07/10 02:50:43;;;;;;;8.27;4.90;;;;;;;17.75;100.00;101889.41;5200931;28;20037;-72
2023/07/10 02:53:14;;;;;;;10.43;5.45;;;;;;;17.83;100.00;101895.00;5196799;28;20479;-73
2023/07/10 02:55:45;;;;;;;10.52;5.78;;;;;;;17.79;100.00;101890.84;5197647;28;20416;-73
2023/07/10 02:58:17;;;;;;;7.53;5.32;;;;;;;17.70;100.00;101898.91;5203533;28;20041;-72
2023/07/10 03:00:56;;;;;;;10.05;6.30;;;;;;;17.69;100.00;101905.31;5197108;28;20388;-72
2023/07/10 03:03:28;;;;;;;11.18;5.82;;;;;;;17.67;100.00;101908.16;5207709;28;20029;-72
2023/07/10 03:06:01;;;;;;;11.05;6.97;;;;;;;17.76;100.00;101914.59;5192452;28;20033;-72
2023/07/10 03:08:33;;;;;;;9.80;6.70;;;;;;;17.67;100.00;101910.84;5193394;28;20045;-72
2023/07/10 03:11:10;;;;;;;11.95;7.57;;;;;;;17.67;100.00;101901.91;5196691;28;20033;-72
2023/07/10 03:13:41;;;;;;;13.07;8.00;;;;;;;17.59;100.00;101908.00;5193622;28;20037;-72
2023/07/10 03:16:15;;;;;;;11.30;7.63;;;;;;;17.52;100.00;101920.31;5192950;28;20507;-72
2023/07/10 03:18:46;;;;;;;12.18;8.15;;;;;;;17.53;100.00;101922.03;5196103;28;20038;-72
2023/07/10 03:21:18;;;;;;;10.75;8.20;;;;;;;17.53;100.00;101927.44;5188497;28;20037;-72
2023/07/10 03:23:50;;;;;;;11.45;7.95;;;;;;;17.47;100.00;101931.53;5189282;28;20034;-72
2023/07/10 03:26:21;;;;;;;10.55;8.20;;;;;;;17.46;100.00;101931.66;5192019;28;20041;-72
2023/07/10 03:29:09;;;;;;;13.82;8.95;;;;;;;17.38;100.00;101940.44;5197008;28;20041;-72
2023/07/10 03:31:42;;;;;;;10.60;8.07;;;;;;;17.32;100.00;101933.75;5191341;28;20034;-73
2023/07/10 03:34:14;;;;;;;11.38;8.27;;;;;;;17.29;100.00;101935.84;5192691;28;20026;-72
2023/07/10 03:36:46;;;;;;;12.88;9.10;;;;;;;17.26;100.00;101934.28;5207501;28;20025;-73
2023/07/10 03:39:17;;;;;;;11.57;8.40;;;;;;;17.22;100.00;101941.78;5194277;28;20050;-72
2023/07/10 03:41:49;;;;;;;13.52;8.32;;;;;;;17.21;100.00;101937.38;5194545;28;20034;-73
2023/07/10 03:44:20;;;;;;;11.00;7.95;;;;;;;17.22;100.00;101935.50;5193541;28;20029;-73
2023/07/10 03:46:51;;;;;;;11.43;8.32;;;;;;;17.17;100.00;101944.03;5190022;28;21108;-72
2023/07/10 03:49:25;;;;;;;12.18;8.25;;;;;;;17.16;100.00;101939.63;5189877;28;20864;-72
2023/07/10 03:51:56;;;;;;;11.73;8.00;;;;;;;17.12;100.00;101940.00;5193418;28;20719;-73
2023/07/10 03:54:32;;;;;;;9.68;6.90;;;;;;;17.06;100.00;101938.69;5191004;28;20030;-72
2023/07/10 03:57:04;;;;;;;10.68;7.20;;;;;;;17.14;100.00;101940.72;5192031;28;20477;-72
2023/07/10 03:59:35;;;;;;;10.52;7.85;;;;;;;17.08;100.00;101946.66;5192591;28;20044;-72
2023/07/10 04:02:06;;;;;;;11.80;7.85;;;;;;;17.16;100.00;101953.13;5190798;28;20037;-72
2023/07/10 04:04:38;;;;;;;12.20;7.55;;;;;;;17.08;100.00;101960.16;5192883;28;20083;-72
2023/07/10 04:07:09;;;;;;;13.13;7.68;;;;;;;17.02;100.00;101966.91;5193535;28;20468;-72
2023/07/10 04:09:41;;;;;;;11.85;8.07;;;;;;;17.04;100.00;101963.09;5191624;28;20404;-72
2023/07/10 04:12:12;;;;;;;10.43;7.53;;;;;;;17.01;100.00;101957.13;5198716;28;20536;-72
2023/07/10 04:14:44;;;;;;;11.55;8.02;;;;;;;16.93;100.00;101971.28;5199776;28;20026;-72
2023/07/10 04:17:16;;;;;;;13.63;8.63;;;;;;;16.96;100.00;101976.38;5196178;28;20038;-72
2023/07/10 04:19:47;;;;;;;10.82;7.93;;;;;;;17.15;100.00;101974.81;5195221;28;20096;-72
2023/07/10 04:22:19;;;;;;;12.18;9.02;;;;;;;17.12;100.00;101970.53;5200716;28;20117;-73
2023/07/10 04:24:50;;;;;;;16.23;9.43;;;;;;;17.24;100.00;101966.78;5197133;28;20044;-72
2023/07/10 04:27:22;;;;;;;12.90;8.70;;;;;;;17.14;100.00;101967.69;5199010;28;20025;-73
2023/07/10 04:29:53;;;;;;;12.65;9.15;;;;;;;17.16;100.00;101965.72;5195434;28;20727;-73
2023/07/10 04:32:24;;;;;;;14.70;10.40;;;;;;;17.17;100.00;101972.84;5194845;28;20061;-73
2023/07/10 04:34:56;;;;;;;13.02;10.43;;;;;;;17.29;100.00;101960.97;5194514;28;20789;-72
2023/07/10 04:37:27;;;;;;;12.35;10.07;;;;;;;17.31;100.00;101960.84;5198558;28;20551;-73
2023/07/10 04:39:59;;;;;;;17.05;11.45;;;;;;;17.46;100.00;101967.59;5197203;28;20025;-73
2023/07/10 04:42:30;;;;;;;14.27;11.32;;;;;;;17.43;100.00;101965.16;5199503;28;20022;-73
2023/07/10 04:45:02;;;;;;;14.05;11.63;;;;;;;17.45;100.00;101965.91;5195578;28;20065;-73
2023/07/10 04:47:33;;;;;;;12.98;11.15;;;;;;;17.36;100.00;101964.84;5192246;28;20048;-73
2023/07/10 04:50:05;;;;;;;15.73;10.80;;;;;;;17.39;100.00;101975.38;5194243;28;20022;-72
2023/07/10 04:52:36;;;;;;;15.40;11.23;;;;;;;17.36;100.00;101966.69;5198462;28;20030;-73
2023/07/10 04:55:08;;;;;;;15.13;10.98;;;;;;;17.36;100.00;101972.09;5196486;28;20030;-73
2023/07/10 04:57:40;;;;;;;16.58;10.65;;;;;;;17.38;100.00;101973.66;5202363;28;20052;-73
2023/07/10 05:00:12;;;;;;;14.75;10.60;;;;;;;17.41;100.00;101983.31;5196207;28;20030;-72
2023/07/10 05:02:43;;;;;;;14.45;10.90;;;;;;;17.38;100.00;101980.91;5204529;28;20026;-73
2023/07/10 05:05:14;;;;;;;17.13;10.73;;;;;;;17.33;100.00;101989.38;5201001;28;20029;-72
2023/07/10 05:07:46;;;;;;;13.98;10.93;;;;;;;17.32;100.00;101987.69;5201575;28;20053;-72
2023/07/10 05:10:17;;;;;;;14.30;10.95;;;;;;;17.35;100.00;101986.56;5202975;28;20088;-73
2023/07/10 05:12:49;;;;;;;13.80;10.93;;;;;;;17.35;100.00;101989.25;5212305;28;20030;-72
2023/07/10 05:15:21;;;;;;;15.55;10.43;;;;;;;17.35;100.00;101992.81;5205273;28;20030;-72
2023/07/10 05:17:52;;;;;;;16.48;11.38;;;;;;;17.33;100.00;101992.09;5213108;28;20469;-72
2023/07/10 05:20:24;;;;;;;14.73;10.70;;;;;;;17.35;100.00;101994.66;5204228;28;20025;-73
2023/07/10 05:22:55;;;;;;;15.73;10.52;;;;;;;17.37;100.00;101996.25;5211465;28;20128;-72
2023/07/10 05:25:26;;;;;;;16.55;11.27;;;;;;;17.41;100.00;101997.69;5209478;28;20179;-73
2023/07/10 05:27:58;;;;;;;12.73;9.90;;;;;;;17.35;100.00;101992.81;5205166;28;20025;-73
2023/07/10 05:30:29;;;;;;;14.93;10.85;;;;;;;17.32;100.00;102000.34;5194577;28;20034;-72
2023/07/10 05:33:03;;;;;;;13.63;10.52;;;;;;;17.34;100.00;102004.59;5193434;28;20026;-73
2023/07/10 05:35:34;;;;;;;15.40;10.03;;;;;;;17.32;100.00;102003.88;5199768;28;20026;-72
2023/07/10 05:38:05;;;;;;;16.27;10.23;;;;;;;17.31;100.00;102001.31;5208840;28;20508;-72
2023/07/10 05:40:41;;;;;;;13.60;9.18;;;;;;;17.34;100.00;102001.91;5208113;28;20022;-73
2023/07/10 05:43:12;;;;;;;13.45;8.55;;;;;;;17.40;100.00;102000.50;5206947;28;20057;-72
2023/07/10 05:45:44;;;;;;;12.25;8.68;;;;;;;17.39;100.00;101993.41;5204506;28;20034;-73
2023/07/10 05:48:16;;;;;;;11.90;8.07;;;;;;;17.41;100.00;101992.28;5211723;28;20080;-72
2023/07/10 05:50:48;;;;;;;13.20;8.90;;;;;;;17.46;100.00;101991.88;5204956;28;21247;-73
2023/07/10 05:53:20;;;;;;;13.80;8.15;;;;;;;17.37;100.00;101998.06;5204399;28;20037;-73
2023/07/10 05:55:53;;;;;;;11.13;7.78;;;;;;;17.47;100.00;101999.00;5210863;28;20127;-73
2023/07/10 05:58:27;;;;;;;11.40;7.33;;;;;;;17.51;100.00;101999.56;5211696;28;20038;-73
2023/07/10 06:01:00;;;;;;;12.13;7.65;;;;;;;17.52;100.00;101998.56;5204653;28;20041;-72
2023/07/10 06:03:33;;;;;;;11.07;6.68;;;;;;;17.53;100.00;101993.06;5207039;28;20021;-72
2023/07/10 06:06:05;;;;;;;12.32;6.70;;;;;;;17.54;100.00;101983.94;5204135;28;20030;-72
2023/07/10 06:08:37;;;;;;;10.85;6.60;;;;;;;17.56;100.00;101984.66;5205045;28;20472;-72
2023/07/10 06:11:09;;;;;;;10.73;6.32;;;;;;;17.62;100.00;101999.47;5203272;28;20091;-72
2023/07/10 06:13:40;;;;;;;8.73;5.85;;;;;;;17.67;100.00;101990.97;5199836;28;20495;-73
2023/07/10 06:16:11;;;;;;;9.60;5.95;;;;;;;17.73;100.00;101988.56;5209564;28;20065;-73
2023/07/10 06:18:43;;;;;;;9.80;5.60;;;;;;;17.74;100.00;101998.41;5198467;28;20392;-72
2023/07/10 06:21:14;;;;;;;9.57;6.28;;;;;;;17.78;100.00;101996.28;5203384;28;20460;-72
2023/07/10 06:23:45;;;;;;;11.10;6.00;;;;;;;17.82;100.00;102003.13;5203606;28;20036;-73
2023/07/10 06:26:17;;;;;;;11.32;6.05;;;;;;;17.91;100.00;102001.47;5208920;28;20037;-72
2023/07/10 06:28:48;;;;;;;9.70;6.63;;;;;;;17.97;100.00;102009.88;5200370;28;20036;-72
2023/07/10 06:31:20;;;;;;;10.63;6.32;;;;;;;18.00;100.00;102008.75;5205381;28;20041;-72
2023/07/10 06:33:51;;;;;;;9.25;5.97;;;;;;;18.06;100.00;102007.34;5199212;28;20021;-73
2023/07/10 06:36:23;;;;;;;8.90;5.70;;;;;;;18.17;100.00;102008.06;5205066;28;20030;-72
2023/07/10 06:38:54;;;;;;;9.23;5.50;;;;;;;18.26;100.00;102005.56;5196175;28;20029;-73
2023/07/10 06:41:27;;;;;;;12.00;5.80;;;;;;;18.30;100.00;102010.53;5203477;28;20547;-73
2023/07/10 06:43:59;;;;;;;9.57;5.10;;;;;;;18.38;100.00;102017.94;5198722;28;20054;-72
2023/07/10 06:46:30;;;;;;;8.07;4.13;;;;;;;18.42;100.00;102008.53;5199150;28;20577;-72
2023/07/10 06:49:02;;;;;;;9.68;4.22;;;;;;;18.51;100.00;101998.75;5197618;28;20097;-73
2023/07/10 06:51:35;;;;;;;10.00;3.78;;;;;;;18.58;100.00;102002.56;5200491;28;20369;-73
2023/07/10 06:54:08;;;;;;;10.02;4.10;;;;;;;18.64;100.00;101995.75;5199034;28;20071;-73
2023/07/10 06:56:39;;;;;;;7.38;3.95;;;;;;;18.73;100.00;102011.13;5198789;28;20994;-73
2023/07/10 06:59:10;;;;;;;7.70;3.85;;;;;;;18.82;100.00;102010.31;5196396;28;20037;-73
2023/07/10 07:01:42;;;;;;;6.90;3.15;;;;;;;18.93;100.00;102003.91;5199660;28;20040;-73
2023/07/10 07:04:13;;;;;;;10.05;3.58;;;;;;;19.03;100.00;102001.19;5198759;28;20567;-73
2023/07/10 07:06:45;;;;;;;9.63;3.30;;;;;;;19.12;100.00;102001.16;5195347;28;20029;-72
2023/07/10 07:09:16;;;;;;;8.27;3.55;;;;;;;19.16;100.00;101994.47;5195966;28;20654;-73
2023/07/10 07:11:47;;;;;;;8.27;3.42;;;;;;;19.23;100.00;102002.84;5197075;28;20589;-73
2023/07/10 07:14:19;;;;;;;10.63;3.95;;;;;;;19.32;100.00;102007.38;5199082;28;20032;-73
2023/07/10 07:16:50;;;;;;;13.55;5.03;;;;;;;19.34;100.00;102004.53;5198249;28;20056;-73
2023/07/10 07:19:22;;;;;;;7.18;3.50;;;;;;;19.42;100.00;102001.94;5201378;28;20034;-73
2023/07/10 07:21:53;;;;;;;9.88;4.40;;;;;;;19.53;100.00;102004.47;5192384;28;20122;-73
2023/07/10 07:24:24;;;;;;;7.72;4.07;;;;;;;19.63;100.00;102006.28;5196948;28;20025;-73
2023/07/10 07:26:56;;;;;;;10.43;3.50;;;;;;;19.71;100.00;102012.69;5194773;28;20416;-73
2023/07/10 07:29:27;;;;;;;11.45;3.90;;;;;;;19.84;100.00;102020.47;5198669;28;20384;-73
2023/07/10 07:31:59;;;;;;;7.55;3.85;;;;;;;19.87;100.00;102022.06;5199188;28;20080;-73
2023/07/10 07:34:30;;;;;;;11.30;4.43;;;;;;;19.87;100.00;102020.19;5193813;28;20057;-73
2023/07/10 07:37:04;;;;;;;7.22;4.22;;;;;;;19.93;100.00;102027.72;5198873;28;20037;-73
2023/07/10 07:39:35;;;;;;;8.15;3.90;;;;;;;19.93;100.00;102025.00;5197414;28;20053;-73
2023/07/10 07:42:11;;;;;;;6.95;3.67;;;;;;;19.96;100.00;102022.00;5200639;28;20026;-73
2023/07/10 07:44:42;;;;;;;12.45;4.88;;;;;;;20.04;100.00;102017.66;5196897;28;20038;-72
2023/07/10 07:47:15;;;;;;;8.43;3.53;;;;;;;20.07;100.00;102017.38;5199246;28;20029;-72
2023/07/10 07:49:47;;;;;;;9.77;4.07;;;;;;;20.11;100.00;102025.03;5200703;28;20112;-73
2023/07/10 07:52:18;;;;;;;8.55;4.00;;;;;;;20.12;100.00;102021.34;5203322;28;20490;-73
2023/07/10 07:54:51;;;;;;;6.68;3.40;;;;;;;20.20;100.00;102019.72;5200587;28;20105;-73
2023/07/10 07:57:23;;;;;;;9.05;3.92;;;;;;;20.25;100.00;102015.56;5205280;28;20037;-73
2023/07/10 07:59:54;;;;;;;6.93;3.08;;;;;;;20.35;100.00;102010.06;5207828;28;20033;-73
2023/07/10 08:02:26;;;;;;;7.40;2.75;;;;;;;20.36;100.00;102006.34;5203837;28;20041;-73
2023/07/10 08:05:00;;;;;;;7.05;2.83;;;;;;;20.43;100.00;102004.72;5209466;28;20054;-72
2023/07/10 08:07:32;;;;;;;7.55;3.03;;;;;;;20.45;100.00;102002.72;5201836;28;20440;-74
2023/07/10 08:10:03;;;;;;;7.10;2.50;;;;;;;20.52;100.00;102000.25;5207020;28;20033;-74
2023/07/10 08:12:35;;;;;;;7.47;2.55;;;;;;;20.54;100.00;101985.53;5209232;28;20562;-73
2023/07/10 08:15:07;;;;;;;8.40;2.28;;;;;;;20.61;100.00;102002.03;5203719;28;20049;-73
2023/07/10 08:17:38;;;;;;;7.78;2.50;;;;;;;20.71;100.00;102008.25;5205314;28;20022;-73
2023/07/10 08:20:10;;;;;;;5.32;2.35;;;;;;;20.81;100.00;102004.63;5203211;28;20080;-73
2023/07/10 08:22:41;;;;;;;6.43;2.50;;;;;;;20.88;100.00;102000.25;5209143;28;20487;-73
2023/07/10 08:25:13;;;;;;;8.43;2.75;;;;;;;20.95;100.00;102004.88;5209674;28;20061;-73
2023/07/10 08:27:45;;;;;;;10.73;2.60;;;;;;;21.01;100.00;101999.84;5202318;28;20489;-73
2023/07/10 08:30:17;;;;;;;8.18;2.72;;;;;;;21.03;100.00;101997.81;5200434;28;20439;-73
2023/07/10 08:32:48;;;;;;;8.55;2.50;;;;;;;21.14;100.00;102011.16;5207808;28;20086;-73
2023/07/10 08:35:19;;;;;;;9.13;2.63;;;;;;;21.21;100.00;102009.50;5205937;28;20037;-72
2023/07/10 08:37:51;;;;;;;6.50;2.00;;;;;;;21.31;100.00;102007.53;5202683;28;20132;-73
2023/07/10 08:40:31;;;;;;;9.10;2.88;;;;;;;21.37;100.00;102007.91;5210723;28;20033;-73
2023/07/10 08:43:28;;;;;;;9.85;2.33;;;;;;;21.41;100.00;101998.44;5206407;28;20033;-72
2023/07/10 08:46:13;;;;;;;7.05;2.00;;;;;;;21.48;100.00;101994.94;5210124;28;21144;-73
2023/07/10 08:48:58;;;;;;;10.65;2.17;;;;;;;21.54;100.00;102002.44;5209083;28;20436;-69
2023/07/10 08:51:57;;;;;;;8.73;2.20;;;;;;;21.61;100.00;101994.50;5204767;28;20152;-69
2023/07/10 08:54:28;;;;;;;7.25;2.20;;;;;;;21.65;100.00;101979.59;5206115;28;20068;-70
2023/07/10 08:57:24;;;;;;;9.32;2.13;;;;;;;21.74;100.00;101994.88;5207182;28;20349;-70
2023/07/10 09:00:06;;;;;;;10.10;2.20;;;;;;;21.82;100.00;101999.53;5201933;28;20038;-69
2023/07/10 09:02:48;;;;;;;8.95;1.98;;;;;;;21.87;100.00;101999.88;5206019;28;20022;-70
2023/07/10 09:05:24;;;;;;;7.05;1.80;;;;;;;21.96;100.00;102005.31;5212445;28;20040;-70
2023/07/10 09:08:03;;;;;;;9.15;2.22;;;;;;;21.95;100.00;102001.75;5197694;28;20093;-70
2023/07/10 09:10:47;;;;;;;8.32;2.42;;;;;;;22.00;100.00;102004.00;5202657;28;20512;-70
2023/07/10 09:13:24;;;;;;;6.93;2.00;;;;;;;22.04;100.00;101999.94;5198245;28;20037;-70
2023/07/10 09:15:57;;;;;;;8.00;2.65;;;;;;;22.14;100.00;101997.94;5198043;28;20025;-70
2023/07/10 09:18:38;;;;;;;5.70;2.00;;;;;;;22.24;100.00;101995.06;5196121;28;20037;-69
2023/07/10 09:21:22;;;;;;;5.65;1.80;;;;;;;22.30;100.00;101989.84;5200386;28;20046;-70
2023/07/10 09:23:55;;;;;;;5.50;2.05;;;;;;;22.36;100.00;101984.75;5199920;28;20040;-70
2023/07/10 09:26:31;;;;;;;7.72;2.22;;;;;;;22.43;100.00;102000.22;5205377;28;20050;-69
2023/07/10 09:29:14;;;;;;;9.93;2.35;;;;;;;22.58;100.00;102005.88;5197572;28;20507;-70
2023/07/10 09:31:52;;;;;;;5.72;2.08;;;;;;;22.58;100.00;102002.31;5196798;28;20029;-70
2023/07/10 09:34:28;;;;;;;8.18;2.28;;;;;;;22.63;100.00;101998.06;5199570;28;20081;-71
2023/07/10 09:37:02;;;;;;;6.43;2.08;;;;;;;22.59;100.00;102002.13;5209822;28;20026;-70
2023/07/10 09:39:34;;;;;;;7.60;2.08;;;;;;;22.70;100.00;102001.81;5204602;28;20042;-70
2023/07/10 09:42:13;;;;;;;7.07;2.65;;;;;;;22.80;100.00;101996.19;5213553;28;20033;-70
2023/07/10 09:44:50;;;;;;;7.40;2.42;;;;;;;22.79;100.00;101997.19;5203506;28;20089;-70
2023/07/10 09:47:22;;;;;;;5.45;2.13;;;;;;;22.94;100.00;101994.66;5213354;28;20026;-70
2023/07/10 09:49:57;;;;;;;6.40;1.60;;;;;;;23.01;100.00;102005.69;5198696;28;20032;-70
2023/07/10 09:52:38;;;;;;;4.97;1.55;;;;;;;23.10;100.00;101994.66;5202445;28;20080;-71
2023/07/10 09:55:15;;;;;;;6.30;1.70;;;;;;;23.12;100.00;102009.97;5201035;28;20542;-70
2023/07/10 09:58:03;;;;;;;5.68;1.65;;;;;;;23.24;100.00;102012.19;5209706;28;20029;-70
2023/07/10 10:00:43;;;;;;;6.95;1.58;;;;;;;23.14;100.00;102010.66;5205004;28;20026;-70
2023/07/10 10:03:21;;;;;;;6.20;1.60;;;;;;;23.08;100.00;102006.75;5206683;28;20113;-70
2023/07/10 10:05:55;;;;;;;5.28;1.55;;;;;;;23.09;100.00;102000.31;5207589;28;20038;-70
2023/07/10 10:08:29;;;;;;;7.03;1.85;;;;;;;23.25;100.00;101996.69;5212611;28;20152;-70
2023/07/10 10:11:02;;;;;;;;;;;;;;;23.48;100.00;101997.66;5210921;28;20089;-70
2023/07/10 10:13:43;;;;;;;6.45;1.67;;;;;;;23.45;100.00;101994.41;5211391;28;20015;-70
2023/07/10 10:16:30;;;;;;;7.03;2.10;;;;;;;23.56;100.00;101988.59;5209432;28;20025;-70
2023/07/10 10:19:06;;;;;;;6.85;1.80;;;;;;;23.63;100.00;101991.50;5216234;28;20029;-70
2023/07/10 10:21:39;;;;;;;6.05;1.98;;;;;;;23.61;100.00;101993.53;5202233;28;20172;-70
2023/07/10 10:24:12;;;;;;;8.25;1.80;;;;;;;23.68;100.00;101987.22;5201745;28;20038;-70
2023/07/10 10:27:02;;;;;;;4.68;1.38;;;;;;;23.63;100.00;101988.75;5198190;28;20113;-70
2023/07/10 10:30:08;;;;;;;7.80;1.60;;;;;;;23.82;100.00;101985.66;5200935;28;20019;-71
2023/07/10 10:32:58;;;;;;;6.20;1.85;;;;;;;23.84;100.00;101989.03;5201270;28;20026;-70
2023/07/10 10:35:38;;;;;;;6.85;1.95;;;;;;;23.82;100.00;101982.91;5210342;28;20026;-71
2023/07/10 10:39:01;;;;;;;5.95;1.90;;;;;;;23.76;100.00;101993.63;5203650;28;20875;-71
2023/07/10 10:41:46;;;;;;;7.78;2.33;;;;;;;23.68;100.00;101987.22;5203453;28;20428;-71
2023/07/10 10:44:17;;;;;;;8.05;1.95;;;;;;;23.55;100.00;101986.03;5206969;28;20085;-70
2023/07/10 10:47:18;;;;;;;4.88;1.85;;;;;;;23.57;100.00;101982.13;5204305;28;20033;-72
2023/07/10 10:49:58;;;;;;;6.35;2.03;;;;;;;23.61;100.00;101988.09;5208008;28;20037;-72
2023/07/10 10:52:48;;;;;;;5.75;1.70;;;;;;;23.66;100.00;101992.00;5194381;28;22786;-73
2023/07/10 10:55:22;;;;;;;5.20;1.85;;;;;;;23.67;100.00;101987.38;5205620;28;20029;-73
2023/07/10 10:58:29;;;;;;;6.72;1.80;;;;;;;23.65;100.00;101993.00;5204315;28;20423;-72
2023/07/10 11:01:10;;;;;;;5.45;1.70;;;;;;;23.72;100.00;102006.78;5203298;28;20116;-72
2023/07/10 11:03:50;;;;;;;6.82;1.88;;;;;;;23.87;100.00;101996.00;5206394;28;20026;-72
2023/07/10 11:06:38;;;;;;;4.72;1.60;;;;;;;24.16;100.00;102005.41;5208456;28;20042;-72
2023/07/10 11:09:16;;;;;;;6.93;1.80;;;;;;;24.20;100.00;102006.75;5199275;28;20542;-72
2023/07/10 11:11:48;;;;;;;6.30;1.90;;;;;;;24.21;100.00;102008.44;5207059;28;20641;-71
2023/07/10 11:14:20;;;;;;;6.15;1.50;;;;;;;24.21;100.00;101997.53;5208160;28;20034;-72
2023/07/10 11:16:53;;;;;;;7.88;1.73;;;;;;;24.12;100.00;101994.00;5201197;28;20026;-73
2023/07/10 11:19:30;;;;;;;6.22;1.75;;;;;;;24.15;100.00;101995.53;5205322;28;20037;-73
2023/07/10 11:22:10;;;;;;;5.57;1.50;;;;;;;24.20;100.00;101984.91;5200884;28;20034;-73
2023/07/10 11:24:48;;;;;;;5.50;1.75;;;;;;;24.25;100.00;101985.25;5205954;28;20037;-72
2023/07/10 11:27:32;;;;;;;7.82;1.80;;;;;;;24.24;100.00;101981.66;5202718;28;20510;-73
2023/07/10 11:30:14;;;;;;;8.38;2.15;;;;;;;24.26;100.00;101976.88;5213802;28;20029;-73
2023/07/10 11:32:58;;;;;;;6.28;1.77;;;;;;;24.35;100.00;101977.66;5209322;28;20034;-72
2023/07/10 11:35:31;;;;;;;8.63;1.52;;;;;;;24.38;100.00;101976.47;5217947;28;20026;-72
2023/07/10 11:38:02;;;;;;;6.93;1.60;;;;;;;24.43;100.00;101972.16;5209051;28;20050;-72
2023/07/10 11:40:38;;;;;;;5.75;1.65;;;;;;;24.51;100.00;101981.31;5208574;28;20084;-72
2023/07/10 11:43:27;;;;;;;7.35;1.52;;;;;;;24.73;100.00;101983.22;5207283;28;20042;-72
2023/07/10 11:46:15;;;;;;;5.15;1.67;;;;;;;24.71;100.00;101976.25;5207979;28;20484;-72
2023/07/10 11:49:11;;;;;;;7.43;1.65;;;;;;;24.87;100.00;101967.06;5202967;28;20628;-73